Time;durP1;ratioP1;P1;durP2;ratioP2;P2;SDS_P1;SDS_P2;PMS_P1;PMS_P2;Temp;Humidity;BMP_temperature;BMP_pressure;BME280_temperature;BME280_humidity;BME280_pressure;Samples;Min_cycle;Max_cycle;Signal;HPM_P1;HPM_P2
2021/08/12 00:01:21;;;;;;;135.63;8.80;;;21.60;76.10;;;;;;5046853;28;20030;-68
2021/08/12 00:03:47;;;;;;;22.40;5.78;;;21.60;76.10;;;;;;5050971;28;20036;-68
2021/08/12 00:06:13;;;;;;;6.80;5.78;;;21.50;76.10;;;;;;5050643;28;20025;-68
2021/08/12 00:08:39;;;;;;;5.32;4.50;;;21.50;76.20;;;;;;5049240;28;20576;-68
2021/08/12 00:11:06;;;;;;;7.55;5.07;;;21.50;76.10;;;;;;5050593;28;20112;-68
2021/08/12 00:13:32;;;;;;;7.00;4.80;;;21.50;76.20;;;;;;5052233;28;20029;-68
2021/08/12 00:15:59;;;;;;;4.60;3.83;;;21.40;76.00;;;;;;5041950;28;20473;-69
2021/08/12 00:18:26;;;;;;;5.85;4.60;;;21.40;75.80;;;;;;5049077;28;20052;-68
2021/08/12 00:20:51;;;;;;;7.53;4.60;;;21.30;75.50;;;;;;5045105;28;20033;-68
2021/08/12 00:23:17;;;;;;;5.28;4.47;;;21.30;75.10;;;;;;5040986;28;20029;-68
2021/08/12 00:25:43;;;;;;;7.03;4.55;;;21.30;75.10;;;;;;5046749;28;20075;-68
2021/08/12 00:28:08;;;;;;;7.15;5.82;;;21.30;74.70;;;;;;5051977;28;20025;-68
2021/08/12 00:30:34;;;;;;;6.72;4.90;;;21.20;74.40;;;;;;5050994;28;20040;-68
2021/08/12 00:33:00;;;;;;;3.80;3.35;;;21.30;74.50;;;;;;5050552;28;20159;-68
2021/08/12 00:35:26;;;;;;;6.78;4.00;;;21.20;74.60;;;;;;5050907;28;20047;-68
2021/08/12 00:37:51;;;;;;;14.95;4.97;;;21.20;74.80;;;;;;5048874;28;20091;-68
2021/08/12 00:40:20;;;;;;;6.75;5.18;;;21.10;74.80;;;;;;5050319;28;20039;-68
2021/08/12 00:42:49;;;;;;;154.88;8.20;;;21.10;74.80;;;;;;5049321;28;20025;-68
2021/08/12 00:45:15;;;;;;;23.00;6.10;;;21.10;74.90;;;;;;5049320;28;20029;-68
2021/08/12 00:47:41;;;;;;;143.32;8.60;;;21.00;74.80;;;;;;5047258;28;20186;-68
2021/08/12 00:50:08;;;;;;;13.43;7.80;;;21.00;75.00;;;;;;5046480;28;20033;-68
2021/08/12 00:52:38;;;;;;;8.00;6.55;;;21.00;75.20;;;;;;5041852;28;20135;-68
2021/08/12 00:55:06;;;;;;;14.77;7.82;;;20.90;75.40;;;;;;5041246;28;20116;-68
2021/08/12 00:57:33;;;;;;;23.77;7.88;;;20.90;75.50;;;;;;5047139;28;20036;-69
2021/08/12 00:59:59;;;;;;;235.02;12.43;;;20.90;75.50;;;;;;5043597;28;20029;-69
2021/08/12 01:02:24;;;;;;;99.15;11.25;;;20.80;75.60;;;;;;5048436;28;20425;-68
2021/08/12 01:04:51;;;;;;;281.27;13.57;;;20.80;75.80;;;;;;5050906;28;20083;-68
2021/08/12 01:07:26;;;;;;;109.25;10.57;;;20.80;76.10;;;;;;5065096;28;20032;-68
2021/08/12 01:10:16;;;;;;;284.20;12.88;;;20.80;76.30;;;;;;5049160;28;20040;-68
2021/08/12 01:13:25;;;;;;;39.00;12.35;;;20.80;76.60;;;;;;5047854;28;20033;-68
2021/08/12 01:15:56;;;;;;;116.95;11.10;;;20.70;76.80;;;;;;5049748;28;20037;-68
2021/08/12 01:18:49;;;;;;;105.00;10.43;;;20.70;77.30;;;;;;5045620;28;20040;-68
2021/08/12 01:21:27;;;;;;;70.75;9.27;;;20.70;77.60;;;;;;5038218;28;20078;-68
2021/08/12 01:24:00;;;;;;;109.13;7.70;;;20.70;77.80;;;;;;5047094;28;20071;-68
2021/08/12 01:26:30;;;;;;;148.55;6.68;;;20.60;78.00;;;;;;5038471;28;20034;-68
2021/08/12 01:28:58;;;;;;;122.53;6.55;;;20.60;78.10;;;;;;5043862;28;20373;-68
2021/08/12 01:31:46;;;;;;;76.25;5.78;;;20.60;78.90;;;;;;5050606;28;20029;-68
2021/08/12 01:34:41;;;;;;;141.38;6.72;;;20.60;78.40;;;;;;5046888;28;20406;-68
2021/08/12 01:37:11;;;;;;;129.50;6.70;;;20.50;78.30;;;;;;5013735;28;20516;-68
2021/08/12 01:39:39;;;;;;;207.32;8.10;;;20.50;78.60;;;;;;5064423;28;20028;-68
2021/08/12 01:42:05;;;;;;;236.18;8.40;;;20.50;78.90;;;;;;5047585;28;20112;-68
2021/08/12 01:44:33;;;;;;;221.60;9.90;;;20.50;79.00;;;;;;5044351;28;20448;-68
2021/08/12 01:47:06;;;;;;;306.80;9.85;;;20.50;79.20;;;;;;5050080;28;20452;-68
2021/08/12 01:49:33;;;;;;;256.63;10.15;;;20.50;79.30;;;;;;5046130;28;20091;-68
2021/08/12 01:52:00;;;;;;;284.65;9.57;;;20.50;79.50;;;;;;5047965;28;20048;-68
2021/08/12 01:54:29;;;;;;;260.75;9.48;;;20.50;79.80;;;;;;5049794;28;20071;-68
2021/08/12 01:57:02;;;;;;;241.20;9.67;;;20.40;79.90;;;;;;5049801;28;20085;-68
2021/08/12 01:59:33;;;;;;;96.78;6.47;;;20.40;79.90;;;;;;5053079;28;20075;-68
2021/08/12 02:01:59;;;;;;;77.45;6.47;;;20.40;80.00;;;;;;5051432;28;20017;-68
2021/08/12 02:04:25;;;;;;;106.13;6.95;;;20.30;79.80;;;;;;5053800;28;20495;-68
2021/08/12 02:06:52;;;;;;;36.65;5.80;;;20.30;79.70;;;;;;5068705;28;20579;-68
2021/08/12 02:09:19;;;;;;;44.22;6.00;;;20.30;79.70;;;;;;5051430;28;20043;-68
2021/08/12 02:11:47;;;;;;;37.10;6.22;;;20.30;79.80;;;;;;5051502;28;20108;-68
2021/08/12 02:14:13;;;;;;;66.10;6.68;;;20.30;79.80;;;;;;5053682;28;20040;-69
2021/08/12 02:16:38;;;;;;;44.72;6.47;;;20.30;79.90;;;;;;5053720;28;20120;-69
2021/08/12 02:19:06;;;;;;;76.03;6.53;;;20.30;79.90;;;;;;5069633;28;20032;-68
2021/08/12 02:21:37;;;;;;;110.43;7.38;;;20.30;79.90;;;;;;5052509;28;20083;-68
2021/08/12 02:24:09;;;;;;;66.13;6.70;;;20.30;80.10;;;;;;5066475;28;20021;-68
2021/08/12 02:26:44;;;;;;;94.97;6.68;;;20.30;80.10;;;;;;5052674;28;20120;-68
2021/08/12 02:29:14;;;;;;;69.60;7.38;;;20.30;80.10;;;;;;5048797;28;20033;-71
2021/08/12 02:31:44;;;;;;;46.53;6.38;;;20.30;80.10;;;;;;5048320;28;20021;-68
2021/08/12 02:34:11;;;;;;;38.55;7.00;;;20.20;80.10;;;;;;5049630;28;20017;-68
2021/08/12 02:36:38;;;;;;;71.57;7.10;;;20.20;80.10;;;;;;5052019;28;20663;-68
2021/08/12 02:39:05;;;;;;;97.13;6.95;;;20.30;80.10;;;;;;5050768;28;20148;-69
2021/08/12 02:41:32;;;;;;;103.93;7.20;;;20.20;80.00;;;;;;5052320;28;20583;-69
2021/08/12 02:43:59;;;;;;;52.35;5.80;;;20.20;80.00;;;;;;5038458;28;20025;-68
2021/08/12 02:46:28;;;;;;;91.65;6.38;;;20.20;80.00;;;;;;5043400;28;20049;-67
2021/08/12 02:48:58;;;;;;;76.97;6.25;;;20.20;80.10;;;;;;5042922;28;20044;-67
2021/08/12 02:51:26;;;;;;;156.00;7.13;;;20.20;80.00;;;;;;5044929;28;20025;-67
2021/08/12 02:53:55;;;;;;;78.85;6.47;;;20.10;80.00;;;;;;5052771;28;20171;-67
2021/08/12 02:56:25;;;;;;;154.15;8.20;;;20.20;80.10;;;;;;5050877;28;20400;-67
2021/08/12 02:58:54;;;;;;;230.48;8.95;;;20.10;80.20;;;;;;5051839;28;20021;-67
2021/08/12 03:01:22;;;;;;;234.20;9.43;;;20.10;80.30;;;;;;5047117;28;20028;-67
2021/08/12 03:03:49;;;;;;;357.90;10.88;;;20.10;80.50;;;;;;5051324;28;20020;-68
2021/08/12 03:06:22;;;;;;;392.13;10.63;;;20.10;80.70;;;;;;5049512;28;20025;-68
2021/08/12 03:08:49;;;;;;;198.65;10.52;;;20.10;80.80;;;;;;5065875;28;20530;-68
2021/08/12 03:11:17;;;;;;;169.50;8.68;;;20.10;80.80;;;;;;5051329;28;20435;-68
2021/08/12 03:13:47;;;;;;;157.35;8.55;;;20.10;80.90;;;;;;5047808;28;20143;-68
2021/08/12 03:16:13;;;;;;;107.28;7.38;;;20.10;81.00;;;;;;5037926;28;20476;-67
2021/08/12 03:18:39;;;;;;;226.98;8.82;;;20.10;80.80;;;;;;5064517;28;20033;-68
2021/08/12 03:21:10;;;;;;;156.93;8.27;;;20.00;80.80;;;;;;5051447;28;20419;-68
2021/08/12 03:23:37;;;;;;;67.00;6.90;;;20.00;81.00;;;;;;5055869;28;20045;-68
2021/08/12 03:26:04;;;;;;;100.90;8.25;;;20.00;80.90;;;;;;5049241;28;20036;-68
2021/08/12 03:28:33;;;;;;;62.90;6.93;;;20.00;80.90;;;;;;5043076;28;20395;-68
2021/08/12 03:31:00;;;;;;;66.32;8.30;;;20.00;80.70;;;;;;5036304;28;20028;-68
2021/08/12 03:33:26;;;;;;;152.82;9.00;;;20.00;80.80;;;;;;5051986;28;20420;-67
2021/08/12 03:35:53;;;;;;;87.88;9.93;;;19.90;80.80;;;;;;5050247;28;20025;-68
2021/08/12 03:38:21;;;;;;;38.92;9.18;;;20.00;81.10;;;;;;5039012;28;20024;-68
2021/08/12 03:40:48;;;;;;;22.88;9.18;;;19.90;81.10;;;;;;5050992;28;20024;-68
2021/08/12 03:43:15;;;;;;;63.90;10.10;;;19.90;81.30;;;;;;5044306;28;20030;-68
2021/08/12 03:45:42;;;;;;;64.68;9.98;;;19.90;81.40;;;;;;5048404;28;20064;-67
2021/08/12 03:48:08;;;;;;;19.10;9.35;;;19.90;81.60;;;;;;5035398;28;20033;-67
2021/08/12 03:50:33;;;;;;;11.40;9.80;;;19.90;81.70;;;;;;5048760;28;20049;-68
2021/08/12 03:52:59;;;;;;;12.07;10.45;;;19.90;81.80;;;;;;5046764;28;20025;-68
2021/08/12 03:55:26;;;;;;;11.85;9.50;;;19.90;81.80;;;;;;5050357;28;20029;-68
2021/08/12 03:57:52;;;;;;;15.40;10.20;;;19.90;81.90;;;;;;5051581;28;20036;-68
2021/08/12 04:00:21;;;;;;;12.57;9.27;;;19.90;82.00;;;;;;5049426;28;20048;-68
2021/08/12 04:02:47;;;;;;;22.02;9.02;;;19.90;82.10;;;;;;5048340;28;20029;-68
2021/08/12 04:05:13;;;;;;;10.45;8.85;;;19.90;82.20;;;;;;5049236;28;20040;-68
2021/08/12 04:07:39;;;;;;;15.18;8.60;;;19.90;82.20;;;;;;5049188;28;20044;-68
2021/08/12 04:10:05;;;;;;;15.23;8.73;;;19.90;82.20;;;;;;5047125;28;20033;-68
2021/08/12 04:12:31;;;;;;;10.13;8.63;;;19.80;82.20;;;;;;5049933;28;20075;-68
2021/08/12 04:14:57;;;;;;;11.07;8.55;;;19.80;82.20;;;;;;5049267;28;20033;-68
2021/08/12 04:17:29;;;;;;;8.68;7.63;;;19.90;82.30;;;;;;5047428;28;20021;-68
2021/08/12 04:19:55;;;;;;;8.10;7.30;;;19.90;82.30;;;;;;5045417;28;20484;-68
2021/08/12 04:22:20;;;;;;;8.52;7.65;;;19.80;82.70;;;;;;5048440;28;20032;-68
2021/08/12 04:24:49;;;;;;;8.30;7.13;;;19.80;82.20;;;;;;5050136;28;20388;-68
2021/08/12 04:27:15;;;;;;;9.00;8.10;;;19.80;82.30;;;;;;5051826;28;20029;-68
2021/08/12 04:29:41;;;;;;;8.32;7.53;;;19.70;82.30;;;;;;5050729;28;20051;-68
2021/08/12 04:32:08;;;;;;;10.07;7.85;;;19.70;82.20;;;;;;5049310;28;20029;-68
2021/08/12 04:34:33;;;;;;;11.90;8.15;;;19.70;82.40;;;;;;5052368;28;20041;-68
2021/08/12 04:36:59;;;;;;;8.10;7.30;;;19.70;82.50;;;;;;5050605;28;20036;-68
2021/08/12 04:39:28;;;;;;;8.25;7.25;;;19.70;82.40;;;;;;5049587;28;20098;-68
2021/08/12 04:41:54;;;;;;;9.90;7.75;;;19.70;82.40;;;;;;5048998;28;20048;-68
2021/08/12 04:44:20;;;;;;;9.27;8.27;;;19.70;82.70;;;;;;5039288;28;20056;-68
2021/08/12 04:46:46;;;;;;;10.32;7.97;;;19.70;82.90;;;;;;5038879;28;20053;-67
2021/08/12 04:49:12;;;;;;;9.00;7.82;;;19.70;83.00;;;;;;5063476;28;20040;-67
2021/08/12 04:51:38;;;;;;;9.15;7.85;;;19.70;82.90;;;;;;5050106;28;20495;-69
2021/08/12 04:54:04;;;;;;;9.63;7.95;;;19.70;83.00;;;;;;5048762;28;20028;-68
2021/08/12 04:56:29;;;;;;;9.27;8.30;;;19.70;83.00;;;;;;5046768;28;20021;-69
2021/08/12 04:58:57;;;;;;;9.90;8.23;;;19.70;83.10;;;;;;5038760;28;20423;-67
2021/08/12 05:01:23;;;;;;;6.60;5.47;;;19.70;83.20;;;;;;5050944;28;20021;-69
2021/08/12 05:03:50;;;;;;;10.25;8.20;;;19.70;83.30;;;;;;5048553;28;20468;-69
2021/08/12 05:06:16;;;;;;;9.13;7.78;;;19.70;83.40;;;;;;5049579;28;20029;-67
2021/08/12 05:08:45;;;;;;;9.60;7.85;;;19.70;83.40;;;;;;5050776;28;20029;-67
2021/08/12 05:11:13;;;;;;;12.85;8.13;;;19.70;83.20;;;;;;5048476;28;20021;-67
2021/08/12 05:13:39;;;;;;;11.10;8.18;;;19.70;83.00;;;;;;5048011;28;20036;-67
2021/08/12 05:16:07;;;;;;;12.38;7.95;;;19.70;83.00;;;;;;5050319;28;20025;-67
2021/08/12 05:18:33;;;;;;;12.05;7.63;;;19.70;83.10;;;;;;5046135;28;20109;-67
2021/08/12 05:20:58;;;;;;;10.15;8.15;;;19.70;83.30;;;;;;5048242;28;20060;-67
2021/08/12 05:23:25;;;;;;;9.02;7.43;;;19.70;83.40;;;;;;5049872;28;20021;-67
2021/08/12 05:25:51;;;;;;;12.30;8.13;;;19.70;83.40;;;;;;5043227;28;20067;-67
2021/08/12 05:28:16;;;;;;;10.05;8.18;;;19.70;83.40;;;;;;5043174;28;20024;-67
2021/08/12 05:30:42;;;;;;;10.63;8.45;;;19.70;83.40;;;;;;5051524;28;20037;-67
2021/08/12 05:33:08;;;;;;;11.00;8.20;;;19.70;83.50;;;;;;5053937;28;20040;-75
2021/08/12 05:35:34;;;;;;;12.48;8.38;;;19.70;83.60;;;;;;5052771;28;20033;-67
2021/08/12 05:37:59;;;;;;;12.75;8.43;;;19.80;83.80;;;;;;5054604;28;20017;-68
2021/08/12 05:40:26;;;;;;;10.65;8.05;;;19.80;83.80;;;;;;5053681;28;20079;-68
2021/08/12 05:42:52;;;;;;;11.05;7.60;;;19.80;83.80;;;;;;5047840;28;20029;-67
2021/08/12 05:45:17;;;;;;;9.75;7.68;;;19.80;83.70;;;;;;5047119;28;20048;-67
2021/08/12 05:47:43;;;;;;;14.45;7.55;;;19.80;83.50;;;;;;5049571;28;20533;-67
2021/08/12 05:50:09;;;;;;;15.23;7.88;;;19.80;83.40;;;;;;5041644;28;20507;-69
2021/08/12 05:52:36;;;;;;;11.40;7.68;;;19.80;83.70;;;;;;5053640;28;20071;-68
2021/08/12 05:55:02;;;;;;;10.68;7.85;;;19.80;83.80;;;;;;5054117;28;20029;-67
2021/08/12 05:57:28;;;;;;;12.52;7.60;;;19.70;83.80;;;;;;5051781;28;20025;-67
2021/08/12 05:59:54;;;;;;;10.50;5.85;;;19.70;84.00;;;;;;5049429;28;20028;-69
2021/08/12 06:02:19;;;;;;;10.63;5.82;;;19.70;84.10;;;;;;5052320;28;20393;-69
2021/08/12 06:04:46;;;;;;;10.48;6.97;;;19.70;84.10;;;;;;5051181;28;20026;-69
2021/08/12 06:07:14;;;;;;;13.18;5.90;;;19.70;84.30;;;;;;5050858;28;20495;-68
2021/08/12 06:09:40;;;;;;;12.85;7.05;;;19.70;84.50;;;;;;5052253;28;20033;-69
2021/08/12 06:12:07;;;;;;;9.63;6.63;;;19.80;84.70;;;;;;5050486;28;20033;-68
2021/08/12 06:14:34;;;;;;;10.07;6.15;;;19.80;84.50;;;;;;5062119;28;20033;-68
2021/08/12 06:17:02;;;;;;;13.73;5.85;;;19.90;84.10;;;;;;5048102;28;20499;-68
2021/08/12 06:19:30;;;;;;;10.50;6.65;;;19.90;83.90;;;;;;5051113;28;20490;-69
2021/08/12 06:21:55;;;;;;;13.40;7.00;;;19.90;83.80;;;;;;5051297;28;20166;-68
2021/08/12 06:24:21;;;;;;;13.00;7.50;;;19.80;83.70;;;;;;5046486;28;20087;-68
2021/08/12 06:26:47;;;;;;;11.07;7.00;;;19.90;84.10;;;;;;5051812;28;20503;-69
2021/08/12 06:29:13;;;;;;;11.30;6.13;;;19.90;84.80;;;;;;5051471;28;20187;-69
2021/08/12 06:31:39;;;;;;;7.32;5.35;;;20.00;85.00;;;;;;5051214;28;20111;-69
2021/08/12 06:34:07;;;;;;;8.52;5.30;;;20.10;85.10;;;;;;5048913;28;20040;-68
2021/08/12 06:36:33;;;;;;;15.13;7.22;;;20.10;84.50;;;;;;5051509;28;20025;-69
2021/08/12 06:39:00;;;;;;;9.98;6.28;;;20.10;84.00;;;;;;5051996;28;20033;-69
2021/08/12 06:41:28;;;;;;;8.05;5.28;;;20.20;84.10;;;;;;5052370;28;20036;-80
2021/08/12 06:43:56;;;;;;;10.63;6.03;;;20.10;83.80;;;;;;5050443;28;20369;-69
2021/08/12 06:46:22;;;;;;;9.20;6.22;;;20.20;83.70;;;;;;5051408;28;20041;-69
2021/08/12 06:48:48;;;;;;;13.55;6.72;;;20.10;84.10;;;;;;5051430;28;20059;-69
2021/08/12 06:51:14;;;;;;;10.45;6.47;;;20.20;84.10;;;;;;5046908;28;20388;-69
2021/08/12 06:53:40;;;;;;;12.25;7.65;;;20.20;83.50;;;;;;5050773;28;20502;-69
2021/08/12 06:56:08;;;;;;;11.30;7.53;;;20.20;83.80;;;;;;5049163;28;20024;-69
2021/08/12 06:58:34;;;;;;;10.27;7.35;;;20.30;84.30;;;;;;5050726;28;20021;-68
2021/08/12 07:00:59;;;;;;;20.33;9.27;;;20.30;84.70;;;;;;5051174;28;20025;-69
2021/08/12 07:03:25;;;;;;;19.83;8.65;;;20.40;85.40;;;;;;5051108;28;20021;-69
2021/08/12 07:05:51;;;;;;;13.50;9.02;;;20.50;85.80;;;;;;5050312;28;20431;-69
2021/08/12 07:08:17;;;;;;;12.15;8.45;;;20.50;85.70;;;;;;5049371;28;20023;-69
2021/08/12 07:10:44;;;;;;;14.82;8.30;;;20.60;85.70;;;;;;5049462;28;20056;-69
2021/08/12 07:13:10;;;;;;;15.02;8.80;;;20.60;85.80;;;;;;5050827;28;20027;-69
2021/08/12 07:15:36;;;;;;;15.27;9.20;;;20.70;85.50;;;;;;5049734;28;20155;-69
2021/08/12 07:18:03;;;;;;;14.38;9.52;;;20.70;85.00;;;;;;5052011;28;20100;-70
2021/08/12 07:20:28;;;;;;;12.90;8.82;;;20.80;85.30;;;;;;5062885;28;20120;-71
2021/08/12 07:22:57;;;;;;;16.00;7.68;;;20.80;84.20;;;;;;5049405;28;20029;-71
2021/08/12 07:25:24;;;;;;;14.27;8.02;;;20.80;82.90;;;;;;5048831;28;20365;-71
2021/08/12 07:27:50;;;;;;;16.73;8.98;;;20.80;83.50;;;;;;5037268;28;20052;-71
2021/08/12 07:30:18;;;;;;;16.25;9.43;;;20.80;84.00;;;;;;5049545;28;20504;-72
2021/08/12 07:32:44;;;;;;;16.40;8.77;;;20.90;84.50;;;;;;5049587;28;20053;-72
2021/08/12 07:35:11;;;;;;;16.75;9.02;;;21.00;83.70;;;;;;5065794;28;20033;-70
2021/08/12 07:37:36;;;;;;;16.33;8.95;;;21.00;83.50;;;;;;5048094;28;20052;-71
2021/08/12 07:40:03;;;;;;;12.18;7.72;;;21.00;83.50;;;;;;5049161;28;20108;-71
2021/08/12 07:42:29;;;;;;;11.55;7.07;;;21.00;83.30;;;;;;5049711;28;20017;-71
2021/08/12 07:44:57;;;;;;;15.43;9.10;;;21.00;82.40;;;;;;5047796;28;20043;-73
2021/08/12 07:47:22;;;;;;;8.60;5.45;;;21.10;82.20;;;;;;5049379;28;20045;-75
2021/08/12 07:49:48;;;;;;;12.25;6.68;;;21.10;81.30;;;;;;5049015;28;20056;-75
2021/08/12 07:52:15;;;;;;;19.63;7.13;;;21.00;80.50;;;;;;5050670;28;20799;-70
2021/08/12 07:54:42;;;;;;;15.68;7.43;;;21.00;81.00;;;;;;5049703;28;20037;-76
2021/08/12 07:57:08;;;;;;;15.05;7.68;;;21.00;81.00;;;;;;5049641;28;20032;-71
2021/08/12 07:59:33;;;;;;;13.43;7.32;;;21.00;80.40;;;;;;5052027;28;20055;-70
2021/08/12 08:01:59;;;;;;;12.30;6.78;;;21.10;80.80;;;;;;5046603;28;20215;-73
2021/08/12 08:04:25;;;;;;;12.52;6.70;;;21.10;80.60;;;;;;5052663;28;20542;-71
2021/08/12 08:06:50;;;;;;;19.23;6.90;;;21.10;80.20;;;;;;5048385;28;20381;-74
2021/08/12 08:09:16;;;;;;;14.05;6.80;;;21.10;81.00;;;;;;5038583;28;20484;-73
2021/08/12 08:11:41;;;;;;;14.00;7.40;;;21.10;79.90;;;;;;5044336;28;20100;-74
2021/08/12 08:14:07;;;;;;;20.45;7.78;;;21.20;79.90;;;;;;5052697;28;20028;-73
2021/08/12 08:16:33;;;;;;;16.48;7.70;;;21.20;80.30;;;;;;5042024;28;20025;-73
2021/08/12 08:18:59;;;;;;;13.63;7.38;;;21.20;79.70;;;;;;5051725;28;20040;-72
2021/08/12 08:21:25;;;;;;;16.33;6.68;;;21.30;79.80;;;;;;5051142;28;20036;-73
2021/08/12 08:23:50;;;;;;;16.30;7.85;;;21.30;79.50;;;;;;5050513;28;20478;-71
2021/08/12 08:26:19;;;;;;;12.23;5.65;;;21.30;79.70;;;;;;5052602;28;20107;-70
2021/08/12 08:28:45;;;;;;;16.45;6.90;;;21.30;79.20;;;;;;5041745;28;20532;-72
2021/08/12 08:31:13;;;;;;;16.55;8.70;;;21.40;79.40;;;;;;5051747;28;20431;-76
2021/08/12 08:33:45;;;;;;;11.13;6.88;;;21.40;79.70;;;;;;5043589;28;20040;-72
2021/08/12 08:36:11;;;;;;;11.45;6.90;;;21.40;79.90;;;;;;5046026;28;20036;-70
2021/08/12 08:38:36;;;;;;;16.25;7.00;;;21.50;80.40;;;;;;5049967;28;20387;-71
2021/08/12 08:41:03;;;;;;;16.02;5.93;;;21.50;80.00;;;;;;5050355;28;20626;-70
2021/08/12 08:43:31;;;;;;;5.80;3.67;;;21.50;79.10;;;;;;5050791;28;20499;-70
2021/08/12 08:45:59;;;;;;;8.32;4.85;;;21.60;78.90;;;;;;5050230;28;20457;-70
2021/08/12 08:48:26;;;;;;;15.57;6.88;;;21.50;79.20;;;;;;5050021;28;20380;-70
2021/08/12 08:50:52;;;;;;;11.70;5.45;;;21.50;79.60;;;;;;5049207;28;20105;-70
2021/08/12 08:53:19;;;;;;;11.52;4.65;;;21.50;79.60;;;;;;5050640;28;20033;-70
2021/08/12 08:55:46;;;;;;;15.20;5.80;;;21.50;79.40;;;;;;5049627;28;20388;-71
2021/08/12 08:58:12;;;;;;;15.13;6.65;;;21.50;79.60;;;;;;5048775;28;20048;-76
2021/08/12 09:00:38;;;;;;;12.25;6.90;;;21.60;80.10;;;;;;5049819;28;20051;-74
2021/08/12 09:03:04;;;;;;;12.68;7.07;;;21.60;80.50;;;;;;5049571;28;20071;-70
2021/08/12 09:05:30;;;;;;;13.00;6.25;;;21.70;80.40;;;;;;5042081;28;20488;-74
2021/08/12 09:07:56;;;;;;;12.98;4.30;;;21.70;80.40;;;;;;5049706;28;20380;-75
2021/08/12 09:10:21;;;;;;;8.25;3.85;;;21.80;79.30;;;;;;5049662;28;20064;-70
2021/08/12 09:12:48;;;;;;;16.13;6.45;;;21.90;79.30;;;;;;5038756;28;20025;-71
2021/08/12 09:15:22;;;;;;;12.15;7.65;;;21.80;79.30;;;;;;5034648;28;20078;-71
2021/08/12 09:17:49;;;;;;;15.68;7.32;;;21.80;79.50;;;;;;5049994;28;20046;-71
2021/08/12 09:20:26;;;;;;;10.57;4.97;;;21.90;79.60;;;;;;5047864;28;20671;-71
2021/08/12 09:23:07;;;;;;;9.30;5.32;;;21.80;79.30;;;;;;5050532;28;20106;-71
2021/08/12 09:25:34;;;;;;;12.32;4.60;;;21.80;79.30;;;;;;5049154;28;20120;-71
2021/08/12 09:28:14;;;;;;;11.75;7.93;;;21.80;79.20;;;;;;5051005;28;20397;-71
2021/08/12 09:30:41;;;;;;;16.45;7.30;;;21.90;79.40;;;;;;5050637;28;20095;-71
2021/08/12 09:33:12;;;;;;;13.18;6.18;;;21.90;79.30;;;;;;5041807;28;20061;-71
2021/08/12 09:35:38;;;;;;;10.18;4.78;;;21.90;79.30;;;;;;5047646;28;20037;-71
2021/08/12 09:38:12;;;;;;;8.25;5.20;;;21.90;79.20;;;;;;5051198;28;20083;-71
2021/08/12 09:40:38;;;;;;;15.02;8.05;;;22.00;79.10;;;;;;5049199;28;20025;-71
2021/08/12 09:43:06;;;;;;;11.02;6.78;;;22.00;79.00;;;;;;5049471;28;20029;-71
2021/08/12 09:45:33;;;;;;;7.15;4.25;;;22.00;79.00;;;;;;5051053;28;20041;-71
2021/08/12 09:48:12;;;;;;;16.15;7.13;;;22.00;79.10;;;;;;5049152;28;20061;-70
2021/08/12 09:50:39;;;;;;;9.70;6.28;;;22.10;78.70;;;;;;5050623;28;20045;-69
2021/08/12 09:53:06;;;;;;;8.50;4.40;;;22.00;78.80;;;;;;5048776;28;20033;-69
2021/08/12 09:55:40;;;;;;;14.38;6.53;;;22.10;79.00;;;;;;5049812;28;20849;-70
2021/08/12 09:58:05;;;;;;;15.00;6.63;;;22.20;78.90;;;;;;5049165;28;20067;-76
2021/08/12 10:00:44;;;;;;;5.72;3.88;;;22.20;78.70;;;;;;5050837;28;20029;-72
2021/08/12 10:03:32;;;;;;;9.88;6.00;;;22.20;78.70;;;;;;5045014;28;20040;-70
2021/08/12 10:06:02;;;;;;;11.75;5.30;;;22.30;78.50;;;;;;5043754;28;20128;-72
2021/08/12 10:08:36;;;;;;;9.85;4.80;;;22.40;78.50;;;;;;5037074;28;20079;-70
2021/08/12 10:11:28;;;;;;;8.68;2.95;;;22.30;78.30;;;;;;5050491;28;20075;-75
2021/08/12 10:14:00;;;;;;;19.83;4.70;;;22.40;78.70;;;;;;5041042;28;20052;-70
2021/08/12 10:16:27;;;;;;;10.77;4.90;;;22.40;78.70;;;;;;5053076;28;20029;-71
2021/08/12 10:18:55;;;;;;;14.85;4.03;;;22.50;78.60;;;;;;5053815;28;20041;-70
2021/08/12 10:21:20;;;;;;;11.55;4.78;;;22.50;78.50;;;;;;5054522;28;20029;-70
2021/08/12 10:23:49;;;;;;;13.30;6.47;;;22.60;78.10;;;;;;5050497;28;20033;-71
2021/08/12 10:26:18;;;;;;;13.23;4.28;;;22.60;77.60;;;;;;5052734;28;20063;-70
2021/08/12 10:28:47;;;;;;;8.63;3.70;;;22.60;77.70;;;;;;5052229;28;20049;-70
2021/08/12 10:31:18;;;;;;;8.32;4.25;;;22.70;78.00;;;;;;5054192;28;20036;-70
2021/08/12 10:33:45;;;;;;;6.05;1.52;;;22.70;77.60;;;;;;5049306;28;20060;-70
2021/08/12 10:36:10;;;;;;;7.95;3.55;;;22.70;77.80;;;;;;5052314;28;20021;-70
2021/08/12 10:38:36;;;;;;;10.20;4.00;;;22.80;77.20;;;;;;5052552;28;20040;-70
2021/08/12 10:41:04;;;;;;;6.60;4.00;;;22.80;77.10;;;;;;5052922;28;20595;-70
2021/08/12 10:43:30;;;;;;;7.63;3.55;;;22.80;76.60;;;;;;5050099;28;20021;-70
2021/08/12 10:46:01;;;;;;;9.63;3.33;;;22.90;76.90;;;;;;5051304;28;20029;-71
2021/08/12 10:48:28;;;;;;;7.10;3.75;;;22.80;76.40;;;;;;5053491;28;20029;-69
2021/08/12 10:51:10;;;;;;;3.38;1.40;;;22.90;76.60;;;;;;5053296;28;20040;-69
2021/08/12 10:53:42;;;;;;;8.70;3.05;;;22.90;76.40;;;;;;5042290;28;20040;-69
2021/08/12 10:56:19;;;;;;;5.78;2.63;;;22.90;75.80;;;;;;5053083;28;20082;-70
2021/08/12 10:58:50;;;;;;;3.58;2.25;;;23.00;76.00;;;;;;5052676;28;20029;-69
2021/08/12 11:01:30;;;;;;;7.82;4.07;;;23.00;75.80;;;;;;5050089;28;20036;-70
2021/08/12 11:03:58;;;;;;;2.55;1.65;;;23.00;75.30;;;;;;5052697;28;20553;-70
2021/08/12 11:06:41;;;;;;;6.93;2.08;;;23.10;76.00;;;;;;5050170;28;20392;-70
2021/08/12 11:09:08;;;;;;;2.58;2.00;;;23.10;75.60;;;;;;5044687;28;20121;-70
2021/08/12 11:11:33;;;;;;;5.38;2.72;;;23.10;75.10;;;;;;5049082;28;20043;-70
2021/08/12 11:14:11;;;;;;;9.25;2.53;;;23.20;74.60;;;;;;5043398;28;20037;-69
2021/08/12 11:16:42;;;;;;;10.93;3.33;;;23.20;74.90;;;;;;5050236;28;20029;-70
2021/08/12 11:19:27;;;;;;;11.38;1.98;;;23.30;74.90;;;;;;5053504;28;20071;-68
2021/08/12 11:21:53;;;;;;;6.72;3.45;;;23.40;74.90;;;;;;5048611;28;20052;-69
2021/08/12 11:24:25;;;;;;;9.38;3.47;;;23.40;74.20;;;;;;5041490;28;20024;-73
2021/08/12 11:26:51;;;;;;;9.52;3.85;;;23.40;74.00;;;;;;5049712;28;20121;-70
2021/08/12 11:29:22;;;;;;;7.22;2.85;;;23.50;74.10;;;;;;5053078;28;20132;-70
2021/08/12 11:31:49;;;;;;;7.03;2.97;;;23.50;74.30;;;;;;5049825;28;20017;-70
2021/08/12 11:34:17;;;;;;;7.80;2.97;;;23.60;74.70;;;;;;5052858;28;20350;-70
2021/08/12 11:37:03;;;;;;;7.95;3.50;;;23.60;74.40;;;;;;5053914;28;20037;-69
2021/08/12 11:39:30;;;;;;;7.30;2.70;;;23.70;74.60;;;;;;5040285;28;20060;-70
2021/08/12 11:41:55;;;;;;;9.43;3.78;;;23.70;74.70;;;;;;5052905;28;20131;-70
2021/08/12 11:44:21;;;;;;;6.18;3.97;;;23.80;74.20;;;;;;5049974;28;20116;-70
2021/08/12 11:46:48;;;;;;;8.27;3.92;;;23.80;74.10;;;;;;5050865;28;20092;-70
2021/08/12 11:49:17;;;;;;;6.18;2.65;;;23.80;74.00;;;;;;5050067;28;20037;-70
2021/08/12 11:51:43;;;;;;;9.38;3.70;;;23.90;74.00;;;;;;5039693;28;20044;-71
2021/08/12 11:54:10;;;;;;;4.68;2.83;;;23.90;73.80;;;;;;5047392;28;20037;-70
2021/08/12 11:56:37;;;;;;;6.25;2.97;;;23.90;74.20;;;;;;5047535;28;20477;-70
2021/08/12 11:59:04;;;;;;;10.02;4.10;;;24.00;74.20;;;;;;5052425;28;20044;-70
2021/08/12 12:01:33;;;;;;;4.20;2.45;;;24.00;73.90;;;;;;5047568;28;20079;-70
2021/08/12 12:04:03;;;;;;;11.02;3.97;;;24.10;73.90;;;;;;5050448;28;20036;-70
2021/08/12 12:06:34;;;;;;;10.20;4.72;;;24.10;73.30;;;;;;5050232;28;20166;-70
2021/08/12 12:09:18;;;;;;;13.02;4.93;;;24.10;73.50;;;;;;5049873;28;20044;-71
2021/08/12 12:11:56;;;;;;;8.73;2.78;;;24.20;74.10;;;;;;5047881;28;20033;-70
2021/08/12 12:14:24;;;;;;;8.88;4.60;;;24.30;74.10;;;;;;5049273;28;20025;-70
2021/08/12 12:17:33;;;;;;;11.10;5.57;;;24.30;73.30;;;;;;5048774;28;20025;-70
2021/08/12 12:20:15;;;;;;;7.38;2.15;;;24.40;73.60;;;;;;4986321;28;20038;-70
2021/08/12 12:22:57;;;;;;;6.90;4.10;;;24.40;74.20;;;;;;4981080;28;20141;-76
2021/08/12 12:25:22;;;;;;;7.50;3.95;;;24.40;73.20;;;;;;5031566;28;20041;-72
2021/08/12 12:27:48;;;;;;;2.30;1.40;;;24.50;73.00;;;;;;5047909;28;20116;-72
2021/08/12 12:30:16;;;;;;;8.00;3.13;;;24.50;73.10;;;;;;5049353;28;20064;-72
2021/08/12 12:32:44;;;;;;;4.85;2.40;;;24.60;72.50;;;;;;5049100;28;20025;-72
2021/08/12 12:35:11;;;;;;;4.47;1.70;;;24.60;72.30;;;;;;5047538;28;20033;-72
2021/08/12 12:37:40;;;;;;;5.95;2.83;;;24.60;72.40;;;;;;5047078;28;20117;-72
2021/08/12 12:40:16;;;;;;;5.72;2.15;;;24.60;72.10;;;;;;5046193;28;20040;-72
2021/08/12 12:42:42;;;;;;;7.78;2.15;;;24.70;72.10;;;;;;5048705;28;20400;-73
2021/08/12 12:45:10;;;;;;;5.60;2.85;;;24.70;71.20;;;;;;5049484;28;20110;-74